sensor_id;sensor_type;location;lat;lon;timestamp;temperature;humidity
43089;DHT22;28709;52.030;5.652;2023-04-06T00:00:56;5.00;82.70
43089;DHT22;28709;52.030;5.652;2023-04-06T00:03:21;5.00;82.40
43089;DHT22;28709;52.030;5.652;2023-04-06T00:05:47;5.10;82.30
43089;DHT22;28709;52.030;5.652;2023-04-06T00:08:13;5.10;82.20
43089;DHT22;28709;52.030;5.652;2023-04-06T00:10:39;5.10;82.10
43089;DHT22;28709;52.030;5.652;2023-04-06T00:13:05;5.20;82.00
43089;DHT22;28709;52.030;5.652;2023-04-06T00:15:31;5.10;81.90
43089;DHT22;28709;52.030;5.652;2023-04-06T00:17:57;5.20;81.90
43089;DHT22;28709;52.030;5.652;2023-04-06T00:20:22;5.10;81.80
43089;DHT22;28709;52.030;5.652;2023-04-06T00:22:48;5.10;81.80
43089;DHT22;28709;52.030;5.652;2023-04-06T00:25:14;5.10;82.00
43089;DHT22;28709;52.030;5.652;2023-04-06T00:27:41;5.00;82.00
43089;DHT22;28709;52.030;5.652;2023-04-06T00:30:07;5.00;82.20
43089;DHT22;28709;52.030;5.652;2023-04-06T00:32:34;4.90;82.10
43089;DHT22;28709;52.030;5.652;2023-04-06T00:35:02;4.90;82.20
43089;DHT22;28709;52.030;5.652;2023-04-06T00:37:28;4.90;82.30
43089;DHT22;28709;52.030;5.652;2023-04-06T00:39:54;4.80;82.40
43089;DHT22;28709;52.030;5.652;2023-04-06T00:42:21;4.80;82.90
43089;DHT22;28709;52.030;5.652;2023-04-06T00:44:55;4.70;83.10
43089;DHT22;28709;52.030;5.652;2023-04-06T00:47:22;4.60;83.30
43089;DHT22;28709;52.030;5.652;2023-04-06T00:49:48;4.50;83.40
43089;DHT22;28709;52.030;5.652;2023-04-06T00:52:15;4.40;83.50
43089;DHT22;28709;52.030;5.652;2023-04-06T00:54:41;4.30;83.60
43089;DHT22;28709;52.030;5.652;2023-04-06T00:57:06;4.20;83.80
43089;DHT22;28709;52.030;5.652;2023-04-06T00:59:32;4.20;83.90
43089;DHT22;28709;52.030;5.652;2023-04-06T01:01:58;4.10;84.00
43089;DHT22;28709;52.030;5.652;2023-04-06T01:04:24;4.20;84.30
43089;DHT22;28709;52.030;5.652;2023-04-06T01:06:50;4.20;84.30
43089;DHT22;28709;52.030;5.652;2023-04-06T01:09:17;4.20;84.20
43089;DHT22;28709;52.030;5.652;2023-04-06T01:11:43;4.30;84.30
43089;DHT22;28709;52.030;5.652;2023-04-06T01:14:09;4.40;84.30
43089;DHT22;28709;52.030;5.652;2023-04-06T01:16:35;4.50;84.10
43089;DHT22;28709;52.030;5.652;2023-04-06T01:19:06;4.60;84.00
43089;DHT22;28709;52.030;5.652;2023-04-06T01:21:33;4.70;83.80
43089;DHT22;28709;52.030;5.652;2023-04-06T01:23:58;4.70;83.70
43089;DHT22;28709;52.030;5.652;2023-04-06T01:26:24;4.80;83.70
43089;DHT22;28709;52.030;5.652;2023-04-06T01:28:49;4.80;83.50
43089;DHT22;28709;52.030;5.652;2023-04-06T01:31:15;4.90;83.60
43089;DHT22;28709;52.030;5.652;2023-04-06T01:33:41;4.80;83.50
43089;DHT22;28709;52.030;5.652;2023-04-06T01:36:07;4.80;83.40
43089;DHT22;28709;52.030;5.652;2023-04-06T01:38:32;4.90;83.60
43089;DHT22;28709;52.030;5.652;2023-04-06T01:40:58;4.90;83.60
43089;DHT22;28709;52.030;5.652;2023-04-06T01:43:24;4.90;83.60
43089;DHT22;28709;52.030;5.652;2023-04-06T01:45:50;4.90;83.80
43089;DHT22;28709;52.030;5.652;2023-04-06T01:48:16;4.90;83.80
43089;DHT22;28709;52.030;5.652;2023-04-06T01:50:42;4.90;83.90
43089;DHT22;28709;52.030;5.652;2023-04-06T01:53:08;4.80;83.80
43089;DHT22;28709;52.030;5.652;2023-04-06T01:55:33;4.80;83.90
43089;DHT22;28709;52.030;5.652;2023-04-06T01:57:59;4.80;83.90
43089;DHT22;28709;52.030;5.652;2023-04-06T02:00:25;4.80;84.10
43089;DHT22;28709;52.030;5.652;2023-04-06T02:02:50;4.90;84.10
43089;DHT22;28709;52.030;5.652;2023-04-06T02:05:16;4.90;84.10
43089;DHT22;28709;52.030;5.652;2023-04-06T02:07:42;4.90;84.10
43089;DHT22;28709;52.030;5.652;2023-04-06T02:10:12;4.90;84.10
43089;DHT22;28709;52.030;5.652;2023-04-06T02:12:38;5.00;84.10
43089;DHT22;28709;52.030;5.652;2023-04-06T02:15:04;5.00;84.20
43089;DHT22;28709;52.030;5.652;2023-04-06T02:17:30;5.00;84.60
43089;DHT22;28709;52.030;5.652;2023-04-06T02:19:56;5.00;84.60
43089;DHT22;28709;52.030;5.652;2023-04-06T02:22:21;5.00;84.60
43089;DHT22;28709;52.030;5.652;2023-04-06T02:24:47;5.00;84.50
43089;DHT22;28709;52.030;5.652;2023-04-06T02:27:14;5.10;84.60
43089;DHT22;28709;52.030;5.652;2023-04-06T02:29:40;5.10;84.50
43089;DHT22;28709;52.030;5.652;2023-04-06T02:32:06;5.10;84.50
43089;DHT22;28709;52.030;5.652;2023-04-06T02:34:31;5.20;84.60
43089;DHT22;28709;52.030;5.652;2023-04-06T02:36:57;5.20;84.60
43089;DHT22;28709;52.030;5.652;2023-04-06T02:39:23;5.20;84.40
43089;DHT22;28709;52.030;5.652;2023-04-06T02:41:48;5.30;84.40
43089;DHT22;28709;52.030;5.652;2023-04-06T02:44:14;5.30;84.30
43089;DHT22;28709;52.030;5.652;2023-04-06T02:46:40;5.30;84.20
43089;DHT22;28709;52.030;5.652;2023-04-06T02:49:05;5.30;84.20
43089;DHT22;28709;52.030;5.652;2023-04-06T02:51:31;5.40;84.20
43089;DHT22;28709;52.030;5.652;2023-04-06T02:53:57;5.30;84.10
43089;DHT22;28709;52.030;5.652;2023-04-06T02:56:23;5.40;84.20
43089;DHT22;28709;52.030;5.652;2023-04-06T02:58:48;5.40;84.20
43089;DHT22;28709;52.030;5.652;2023-04-06T03:01:14;5.40;84.00
43089;DHT22;28709;52.030;5.652;2023-04-06T03:03:40;5.40;83.90
43089;DHT22;28709;52.030;5.652;2023-04-06T03:06:06;5.50;83.90
43089;DHT22;28709;52.030;5.652;2023-04-06T03:08:31;5.50;83.70
43089;DHT22;28709;52.030;5.652;2023-04-06T03:10:57;5.50;83.70
43089;DHT22;28709;52.030;5.652;2023-04-06T03:13:23;5.50;83.70
43089;DHT22;28709;52.030;5.652;2023-04-06T03:15:49;5.50;83.70
43089;DHT22;28709;52.030;5.652;2023-04-06T03:18:14;5.50;83.70
43089;DHT22;28709;52.030;5.652;2023-04-06T03:20:40;5.50;83.60
43089;DHT22;28709;52.030;5.652;2023-04-06T03:23:06;5.50;83.70
43089;DHT22;28709;52.030;5.652;2023-04-06T03:25:31;5.50;83.50
43089;DHT22;28709;52.030;5.652;2023-04-06T03:27:57;5.60;83.50
43089;DHT22;28709;52.030;5.652;2023-04-06T03:30:23;5.60;83.30
43089;DHT22;28709;52.030;5.652;2023-04-06T03:32:48;5.60;83.30
43089;DHT22;28709;52.030;5.652;2023-04-06T03:35:14;5.60;83.20
43089;DHT22;28709;52.030;5.652;2023-04-06T03:37:40;5.60;83.20
43089;DHT22;28709;52.030;5.652;2023-04-06T03:40:06;5.70;83.30
43089;DHT22;28709;52.030;5.652;2023-04-06T03:42:32;5.70;83.40
43089;DHT22;28709;52.030;5.652;2023-04-06T03:44:58;5.70;83.20
43089;DHT22;28709;52.030;5.652;2023-04-06T03:47:24;5.70;83.30
43089;DHT22;28709;52.030;5.652;2023-04-06T03:49:50;5.70;83.40
43089;DHT22;28709;52.030;5.652;2023-04-06T03:52:16;5.70;83.40
43089;DHT22;28709;52.030;5.652;2023-04-06T03:54:41;5.70;83.40
43089;DHT22;28709;52.030;5.652;2023-04-06T03:57:07;5.70;83.40
43089;DHT22;28709;52.030;5.652;2023-04-06T03:59:33;5.70;83.50
43089;DHT22;28709;52.030;5.652;2023-04-06T04:01:58;5.80;83.50
43089;DHT22;28709;52.030;5.652;2023-04-06T04:04:24;5.80;83.60
43089;DHT22;28709;52.030;5.652;2023-04-06T04:06:50;5.80;83.70
43089;DHT22;28709;52.030;5.652;2023-04-06T04:09:15;5.80;83.70
43089;DHT22;28709;52.030;5.652;2023-04-06T04:11:41;5.80;83.80
43089;DHT22;28709;52.030;5.652;2023-04-06T04:14:07;5.80;83.90
43089;DHT22;28709;52.030;5.652;2023-04-06T04:16:33;5.80;84.00
43089;DHT22;28709;52.030;5.652;2023-04-06T04:18:58;5.80;84.20
43089;DHT22;28709;52.030;5.652;2023-04-06T04:21:24;5.80;84.40
43089;DHT22;28709;52.030;5.652;2023-04-06T04:23:51;5.80;84.50
43089;DHT22;28709;52.030;5.652;2023-04-06T04:26:18;5.80;84.60
43089;DHT22;28709;52.030;5.652;2023-04-06T04:28:43;5.80;84.80
43089;DHT22;28709;52.030;5.652;2023-04-06T04:31:09;5.80;84.90
43089;DHT22;28709;52.030;5.652;2023-04-06T04:33:35;5.80;85.00
43089;DHT22;28709;52.030;5.652;2023-04-06T04:36:01;5.80;85.30
43089;DHT22;28709;52.030;5.652;2023-04-06T04:38:26;5.80;85.50
43089;DHT22;28709;52.030;5.652;2023-04-06T04:40:52;5.80;85.70
43089;DHT22;28709;52.030;5.652;2023-04-06T04:43:18;5.70;85.70
43089;DHT22;28709;52.030;5.652;2023-04-06T04:45:43;5.70;85.80
43089;DHT22;28709;52.030;5.652;2023-04-06T04:48:09;5.70;85.90
43089;DHT22;28709;52.030;5.652;2023-04-06T04:50:35;5.70;86.50
43089;DHT22;28709;52.030;5.652;2023-04-06T04:53:01;5.70;86.50
43089;DHT22;28709;52.030;5.652;2023-04-06T04:55:28;5.70;86.70
43089;DHT22;28709;52.030;5.652;2023-04-06T04:57:54;5.70;86.80
43089;DHT22;28709;52.030;5.652;2023-04-06T05:00:20;5.70;87.10
43089;DHT22;28709;52.030;5.652;2023-04-06T05:02:46;5.70;87.40
43089;DHT22;28709;52.030;5.652;2023-04-06T05:05:11;5.60;87.40
43089;DHT22;28709;52.030;5.652;2023-04-06T05:07:37;5.60;87.30
43089;DHT22;28709;52.030;5.652;2023-04-06T05:10:03;5.60;87.20
43089;DHT22;28709;52.030;5.652;2023-04-06T05:12:29;5.60;87.30
43089;DHT22;28709;52.030;5.652;2023-04-06T05:14:54;5.60;87.40
43089;DHT22;28709;52.030;5.652;2023-04-06T05:17:20;5.60;87.60
43089;DHT22;28709;52.030;5.652;2023-04-06T05:19:46;5.60;87.80
43089;DHT22;28709;52.030;5.652;2023-04-06T05:22:11;5.50;87.90
43089;DHT22;28709;52.030;5.652;2023-04-06T05:24:39;5.50;88.10
43089;DHT22;28709;52.030;5.652;2023-04-06T05:27:05;5.50;88.30
43089;DHT22;28709;52.030;5.652;2023-04-06T05:29:31;5.40;88.40
43089;DHT22;28709;52.030;5.652;2023-04-06T05:31:57;5.40;88.70
43089;DHT22;28709;52.030;5.652;2023-04-06T05:34:23;5.40;88.90
43089;DHT22;28709;52.030;5.652;2023-04-06T05:36:48;5.40;89.10
43089;DHT22;28709;52.030;5.652;2023-04-06T05:39:14;5.40;89.20
43089;DHT22;28709;52.030;5.652;2023-04-06T05:41:40;5.50;89.50
43089;DHT22;28709;52.030;5.652;2023-04-06T05:44:06;5.50;89.50
43089;DHT22;28709;52.030;5.652;2023-04-06T05:46:32;5.50;89.40
43089;DHT22;28709;52.030;5.652;2023-04-06T05:48:57;5.50;89.40
43089;DHT22;28709;52.030;5.652;2023-04-06T05:51:23;5.60;89.70
43089;DHT22;28709;52.030;5.652;2023-04-06T05:53:49;5.70;89.50
43089;DHT22;28709;52.030;5.652;2023-04-06T05:56:14;5.70;89.60
43089;DHT22;28709;52.030;5.652;2023-04-06T05:58:41;5.80;89.60
43089;DHT22;28709;52.030;5.652;2023-04-06T06:01:06;5.90;89.50
43089;DHT22;28709;52.030;5.652;2023-04-06T06:03:32;6.00;89.30
43089;DHT22;28709;52.030;5.652;2023-04-06T06:06:02;6.10;89.20
43089;DHT22;28709;52.030;5.652;2023-04-06T06:08:28;6.20;88.90
43089;DHT22;28709;52.030;5.652;2023-04-06T06:10:54;6.30;89.10
43089;DHT22;28709;52.030;5.652;2023-04-06T06:13:19;6.40;88.20
43089;DHT22;28709;52.030;5.652;2023-04-06T06:15:45;6.40;88.10
43089;DHT22;28709;52.030;5.652;2023-04-06T06:18:11;6.50;88.00
43089;DHT22;28709;52.030;5.652;2023-04-06T06:20:37;6.60;88.10
43089;DHT22;28709;52.030;5.652;2023-04-06T06:23:02;6.70;88.10
43089;DHT22;28709;52.030;5.652;2023-04-06T06:25:28;6.70;88.00
43089;DHT22;28709;52.030;5.652;2023-04-06T06:27:56;6.90;87.60
43089;DHT22;28709;52.030;5.652;2023-04-06T06:30:22;7.00;87.70
43089;DHT22;28709;52.030;5.652;2023-04-06T06:32:48;7.10;87.40
43089;DHT22;28709;52.030;5.652;2023-04-06T06:35:13;7.20;87.30
43089;DHT22;28709;52.030;5.652;2023-04-06T06:37:39;7.40;86.30
43089;DHT22;28709;52.030;5.652;2023-04-06T06:40:05;7.50;86.10
43089;DHT22;28709;52.030;5.652;2023-04-06T06:42:31;7.60;85.60
43089;DHT22;28709;52.030;5.652;2023-04-06T06:44:57;7.70;85.50
43089;DHT22;28709;52.030;5.652;2023-04-06T06:47:22;7.60;85.60
43089;DHT22;28709;52.030;5.652;2023-04-06T06:49:48;7.60;85.70
43089;DHT22;28709;52.030;5.652;2023-04-06T06:52:14;7.60;85.50
43089;DHT22;28709;52.030;5.652;2023-04-06T06:54:39;7.60;85.40
43089;DHT22;28709;52.030;5.652;2023-04-06T06:57:05;7.50;85.60
43089;DHT22;28709;52.030;5.652;2023-04-06T06:59:31;7.50;85.70
43089;DHT22;28709;52.030;5.652;2023-04-06T07:01:56;7.50;85.80
43089;DHT22;28709;52.030;5.652;2023-04-06T07:04:22;7.60;85.70
43089;DHT22;28709;52.030;5.652;2023-04-06T07:06:48;7.50;85.20
43089;DHT22;28709;52.030;5.652;2023-04-06T07:09:13;7.60;85.40
43089;DHT22;28709;52.030;5.652;2023-04-06T07:11:39;7.60;85.20
43089;DHT22;28709;52.030;5.652;2023-04-06T07:14:05;7.60;85.50
43089;DHT22;28709;52.030;5.652;2023-04-06T07:16:30;7.70;85.70
43089;DHT22;28709;52.030;5.652;2023-04-06T07:18:56;7.90;85.70
43089;DHT22;28709;52.030;5.652;2023-04-06T07:21:22;7.90;85.70
43089;DHT22;28709;52.030;5.652;2023-04-06T07:23:47;8.10;85.90
43089;DHT22;28709;52.030;5.652;2023-04-06T07:26:14;8.20;85.60
43089;DHT22;28709;52.030;5.652;2023-04-06T07:28:39;8.30;85.60
43089;DHT22;28709;52.030;5.652;2023-04-06T07:31:05;8.30;85.30
43089;DHT22;28709;52.030;5.652;2023-04-06T07:33:31;8.20;85.60
43089;DHT22;28709;52.030;5.652;2023-04-06T07:35:57;8.10;85.90
43089;DHT22;28709;52.030;5.652;2023-04-06T07:38:23;8.00;86.30
43089;DHT22;28709;52.030;5.652;2023-04-06T07:40:50;7.90;86.80
43089;DHT22;28709;52.030;5.652;2023-04-06T07:43:15;7.90;87.10
43089;DHT22;28709;52.030;5.652;2023-04-06T07:45:41;7.90;87.50
43089;DHT22;28709;52.030;5.652;2023-04-06T07:48:07;7.80;87.60
43089;DHT22;28709;52.030;5.652;2023-04-06T07:50:33;7.90;88.00
43089;DHT22;28709;52.030;5.652;2023-04-06T07:52:59;7.80;88.30
43089;DHT22;28709;52.030;5.652;2023-04-06T07:55:25;7.80;88.30
43089;DHT22;28709;52.030;5.652;2023-04-06T07:57:51;7.80;88.60
43089;DHT22;28709;52.030;5.652;2023-04-06T08:00:17;7.80;88.80
43089;DHT22;28709;52.030;5.652;2023-04-06T08:02:43;7.80;89.10
43089;DHT22;28709;52.030;5.652;2023-04-06T08:05:09;7.80;89.20
43089;DHT22;28709;52.030;5.652;2023-04-06T08:07:35;7.90;89.40
43089;DHT22;28709;52.030;5.652;2023-04-06T08:10:01;7.90;89.40
43089;DHT22;28709;52.030;5.652;2023-04-06T08:12:27;8.00;89.60
43089;DHT22;28709;52.030;5.652;2023-04-06T08:14:53;8.00;89.70
43089;DHT22;28709;52.030;5.652;2023-04-06T08:17:18;8.00;90.10
43089;DHT22;28709;52.030;5.652;2023-04-06T08:19:44;8.10;89.60
43089;DHT22;28709;52.030;5.652;2023-04-06T08:22:11;8.10;89.20
43089;DHT22;28709;52.030;5.652;2023-04-06T08:24:36;8.10;89.30
43089;DHT22;28709;52.030;5.652;2023-04-06T08:27:02;8.20;88.90
43089;DHT22;28709;52.030;5.652;2023-04-06T08:29:28;8.30;89.00
43089;DHT22;28709;52.030;5.652;2023-04-06T08:31:54;8.40;88.70
43089;DHT22;28709;52.030;5.652;2023-04-06T08:34:21;8.60;88.10
43089;DHT22;28709;52.030;5.652;2023-04-06T08:36:46;8.60;87.60
43089;DHT22;28709;52.030;5.652;2023-04-06T08:39:12;8.80;87.20
43089;DHT22;28709;52.030;5.652;2023-04-06T08:41:38;8.80;86.50
43089;DHT22;28709;52.030;5.652;2023-04-06T08:44:06;8.80;86.40
43089;DHT22;28709;52.030;5.652;2023-04-06T08:46:33;8.90;86.60
43089;DHT22;28709;52.030;5.652;2023-04-06T08:49:00;8.90;86.30
43089;DHT22;28709;52.030;5.652;2023-04-06T08:51:27;8.90;86.50
43089;DHT22;28709;52.030;5.652;2023-04-06T08:53:57;8.90;86.90
43089;DHT22;28709;52.030;5.652;2023-04-06T08:56:24;9.00;87.10
43089;DHT22;28709;52.030;5.652;2023-04-06T08:58:50;9.10;87.60
43089;DHT22;28709;52.030;5.652;2023-04-06T09:01:20;9.20;87.50
43089;DHT22;28709;52.030;5.652;2023-04-06T09:03:47;9.20;87.60
43089;DHT22;28709;52.030;5.652;2023-04-06T09:06:14;9.20;87.90
43089;DHT22;28709;52.030;5.652;2023-04-06T09:08:40;9.20;88.40
43089;DHT22;28709;52.030;5.652;2023-04-06T09:11:07;9.20;88.50
43089;DHT22;28709;52.030;5.652;2023-04-06T09:13:53;9.10;88.70
43089;DHT22;28709;52.030;5.652;2023-04-06T09:16:20;9.20;89.10
43089;DHT22;28709;52.030;5.652;2023-04-06T09:18:47;9.30;89.20
43089;DHT22;28709;52.030;5.652;2023-04-06T09:21:12;9.40;89.60
43089;DHT22;28709;52.030;5.652;2023-04-06T09:23:39;9.40;89.40
43089;DHT22;28709;52.030;5.652;2023-04-06T09:26:13;9.40;89.50
43089;DHT22;28709;52.030;5.652;2023-04-06T09:31:34;9.40;90.10
43089;DHT22;28709;52.030;5.652;2023-04-06T09:34:01;9.50;90.30
43089;DHT22;28709;52.030;5.652;2023-04-06T09:36:35;9.60;90.20
43089;DHT22;28709;52.030;5.652;2023-04-06T09:39:02;9.60;90.20
43089;DHT22;28709;52.030;5.652;2023-04-06T09:41:31;9.60;90.20
43089;DHT22;28709;52.030;5.652;2023-04-06T09:44:12;9.70;90.20
43089;DHT22;28709;52.030;5.652;2023-04-06T09:46:40;9.80;90.40
43089;DHT22;28709;52.030;5.652;2023-04-06T09:49:07;9.80;90.10
43089;DHT22;28709;52.030;5.652;2023-04-06T09:51:38;9.80;90.00
43089;DHT22;28709;52.030;5.652;2023-04-06T09:54:05;9.80;90.10
43089;DHT22;28709;52.030;5.652;2023-04-06T09:56:46;9.80;90.10
43089;DHT22;28709;52.030;5.652;2023-04-06T09:59:30;9.90;90.20
43089;DHT22;28709;52.030;5.652;2023-04-06T10:01:58;9.90;90.20
43089;DHT22;28709;52.030;5.652;2023-04-06T10:07:03;9.70;90.70
43089;DHT22;28709;52.030;5.652;2023-04-06T10:09:31;9.70;91.00
43089;DHT22;28709;52.030;5.652;2023-04-06T10:12:05;9.80;91.10
43089;DHT22;28709;52.030;5.652;2023-04-06T10:14:33;9.80;91.10
43089;DHT22;28709;52.030;5.652;2023-04-06T10:17:02;9.90;91.20
43089;DHT22;28709;52.030;5.652;2023-04-06T10:19:44;9.90;90.80
43089;DHT22;28709;52.030;5.652;2023-04-06T10:22:18;9.90;90.70
43089;DHT22;28709;52.030;5.652;2023-04-06T10:24:48;10.00;90.80
43089;DHT22;28709;52.030;5.652;2023-04-06T10:27:13;10.10;90.90
43089;DHT22;28709;52.030;5.652;2023-04-06T10:29:46;10.20;90.90
43089;DHT22;28709;52.030;5.652;2023-04-06T10:32:14;10.30;90.90
43089;DHT22;28709;52.030;5.652;2023-04-06T10:34:39;10.40;90.70
43089;DHT22;28709;52.030;5.652;2023-04-06T10:37:15;10.50;90.70
43089;DHT22;28709;52.030;5.652;2023-04-06T10:39:52;10.50;90.90
43089;DHT22;28709;52.030;5.652;2023-04-06T10:42:45;10.50;91.30
43089;DHT22;28709;52.030;5.652;2023-04-06T10:45:19;10.50;91.50
43089;DHT22;28709;52.030;5.652;2023-04-06T10:47:46;10.60;91.70
43089;DHT22;28709;52.030;5.652;2023-04-06T10:50:14;10.60;92.00
43089;DHT22;28709;52.030;5.652;2023-04-06T10:52:40;10.70;92.20
43089;DHT22;28709;52.030;5.652;2023-04-06T10:55:08;10.70;92.40
43089;DHT22;28709;52.030;5.652;2023-04-06T10:57:35;10.70;92.70
43089;DHT22;28709;52.030;5.652;2023-04-06T11:00:04;10.60;93.40
43089;DHT22;28709;52.030;5.652;2023-04-06T11:02:30;10.40;94.30
43089;DHT22;28709;52.030;5.652;2023-04-06T11:04:57;10.20;95.40
43089;DHT22;28709;52.030;5.652;2023-04-06T11:07:26;10.10;96.50
43089;DHT22;28709;52.030;5.652;2023-04-06T11:09:53;10.10;97.60
43089;DHT22;28709;52.030;5.652;2023-04-06T11:12:26;10.10;99.40
43089;DHT22;28709;52.030;5.652;2023-04-06T11:14:56;10.00;99.90
43089;DHT22;28709;52.030;5.652;2023-04-06T11:17:28;10.00;99.90
43089;DHT22;28709;52.030;5.652;2023-04-06T11:19:54;10.00;99.90
43089;DHT22;28709;52.030;5.652;2023-04-06T11:22:20;10.00;99.90
43089;DHT22;28709;52.030;5.652;2023-04-06T11:24:46;10.00;99.90
43089;DHT22;28709;52.030;5.652;2023-04-06T11:27:12;9.80;99.90
43089;DHT22;28709;52.030;5.652;2023-04-06T11:29:39;9.60;99.90
43089;DHT22;28709;52.030;5.652;2023-04-06T11:32:06;9.50;99.90
43089;DHT22;28709;52.030;5.652;2023-04-06T11:34:35;9.40;99.90
43089;DHT22;28709;52.030;5.652;2023-04-06T11:37:03;9.30;99.90
43089;DHT22;28709;52.030;5.652;2023-04-06T11:39:38;9.30;99.90
43089;DHT22;28709;52.030;5.652;2023-04-06T11:42:04;9.10;99.90
43089;DHT22;28709;52.030;5.652;2023-04-06T11:44:44;9.10;99.90
43089;DHT22;28709;52.030;5.652;2023-04-06T11:47:14;9.10;99.90
43089;DHT22;28709;52.030;5.652;2023-04-06T11:49:42;9.00;99.90
43089;DHT22;28709;52.030;5.652;2023-04-06T11:52:18;9.10;99.90
43089;DHT22;28709;52.030;5.652;2023-04-06T11:54:45;9.10;99.90
43089;DHT22;28709;52.030;5.652;2023-04-06T11:57:11;9.00;99.90
43089;DHT22;28709;52.030;5.652;2023-04-06T11:59:36;8.80;99.90
43089;DHT22;28709;52.030;5.652;2023-04-06T12:02:03;8.70;99.90
43089;DHT22;28709;52.030;5.652;2023-04-06T12:04:29;8.60;99.90
43089;DHT22;28709;52.030;5.652;2023-04-06T12:06:55;8.50;99.90
43089;DHT22;28709;52.030;5.652;2023-04-06T12:09:21;8.40;99.90
43089;DHT22;28709;52.030;5.652;2023-04-06T12:11:47;8.40;99.90
43089;DHT22;28709;52.030;5.652;2023-04-06T12:14:13;8.30;99.90
43089;DHT22;28709;52.030;5.652;2023-04-06T12:16:39;8.20;99.90
43089;DHT22;28709;52.030;5.652;2023-04-06T12:19:06;8.10;99.90
43089;DHT22;28709;52.030;5.652;2023-04-06T12:21:33;8.10;99.90
43089;DHT22;28709;52.030;5.652;2023-04-06T12:23:59;8.00;99.90
43089;DHT22;28709;52.030;5.652;2023-04-06T12:26:26;8.00;99.90
43089;DHT22;28709;52.030;5.652;2023-04-06T12:28:52;7.90;99.90
43089;DHT22;28709;52.030;5.652;2023-04-06T12:31:20;7.90;99.90
43089;DHT22;28709;52.030;5.652;2023-04-06T12:33:48;7.90;99.90
43089;DHT22;28709;52.030;5.652;2023-04-06T12:36:18;7.90;99.90
43089;DHT22;28709;52.030;5.652;2023-04-06T12:38:45;7.90;99.90
43089;DHT22;28709;52.030;5.652;2023-04-06T12:41:12;8.00;99.90
43089;DHT22;28709;52.030;5.652;2023-04-06T12:43:39;8.00;99.90
43089;DHT22;28709;52.030;5.652;2023-04-06T12:46:05;8.00;99.90
43089;DHT22;28709;52.030;5.652;2023-04-06T12:48:31;8.00;99.90
43089;DHT22;28709;52.030;5.652;2023-04-06T12:50:58;8.00;99.90
43089;DHT22;28709;52.030;5.652;2023-04-06T12:53:24;8.00;99.90
43089;DHT22;28709;52.030;5.652;2023-04-06T12:55:51;8.00;99.90
43089;DHT22;28709;52.030;5.652;2023-04-06T12:58:17;8.00;99.90
43089;DHT22;28709;52.030;5.652;2023-04-06T13:00:43;8.00;99.90
43089;DHT22;28709;52.030;5.652;2023-04-06T13:03:09;8.10;99.90
43089;DHT22;28709;52.030;5.652;2023-04-06T13:05:34;8.00;99.90
43089;DHT22;28709;52.030;5.652;2023-04-06T13:08:00;8.00;99.90
43089;DHT22;28709;52.030;5.652;2023-04-06T13:10:26;7.90;99.90
43089;DHT22;28709;52.030;5.652;2023-04-06T13:12:52;7.90;99.90
43089;DHT22;28709;52.030;5.652;2023-04-06T13:15:17;7.90;99.90
43089;DHT22;28709;52.030;5.652;2023-04-06T13:17:43;8.00;99.90
43089;DHT22;28709;52.030;5.652;2023-04-06T13:20:09;8.00;99.90
43089;DHT22;28709;52.030;5.652;2023-04-06T13:22:35;8.00;99.90
43089;DHT22;28709;52.030;5.652;2023-04-06T13:25:01;7.90;99.90
43089;DHT22;28709;52.030;5.652;2023-04-06T13:27:27;8.00;99.90
43089;DHT22;28709;52.030;5.652;2023-04-06T13:29:53;8.00;99.90
43089;DHT22;28709;52.030;5.652;2023-04-06T13:32:20;8.00;99.90
43089;DHT22;28709;52.030;5.652;2023-04-06T13:34:46;8.00;99.90
43089;DHT22;28709;52.030;5.652;2023-04-06T13:37:14;7.90;99.90
43089;DHT22;28709;52.030;5.652;2023-04-06T13:39:40;7.90;99.90
43089;DHT22;28709;52.030;5.652;2023-04-06T13:42:05;7.90;99.90
43089;DHT22;28709;52.030;5.652;2023-04-06T13:44:32;7.90;99.90
43089;DHT22;28709;52.030;5.652;2023-04-06T13:46:58;7.90;99.90
43089;DHT22;28709;52.030;5.652;2023-04-06T13:49:24;7.90;99.90
43089;DHT22;28709;52.030;5.652;2023-04-06T13:51:49;7.90;99.90
43089;DHT22;28709;52.030;5.652;2023-04-06T13:54:15;7.90;99.90
43089;DHT22;28709;52.030;5.652;2023-04-06T13:56:41;7.90;99.90
43089;DHT22;28709;52.030;5.652;2023-04-06T13:59:07;7.90;99.90
43089;DHT22;28709;52.030;5.652;2023-04-06T14:01:32;7.80;99.90
43089;DHT22;28709;52.030;5.652;2023-04-06T14:03:58;7.90;99.90
43089;DHT22;28709;52.030;5.652;2023-04-06T14:06:23;7.80;99.90
43089;DHT22;28709;52.030;5.652;2023-04-06T14:08:50;7.80;99.90
43089;DHT22;28709;52.030;5.652;2023-04-06T14:11:15;7.80;99.90
43089;DHT22;28709;52.030;5.652;2023-04-06T14:13:41;7.80;99.90
43089;DHT22;28709;52.030;5.652;2023-04-06T14:16:08;7.80;99.90
43089;DHT22;28709;52.030;5.652;2023-04-06T14:18:33;7.80;99.90
43089;DHT22;28709;52.030;5.652;2023-04-06T14:20:59;7.80;99.90
43089;DHT22;28709;52.030;5.652;2023-04-06T14:23:29;7.90;99.90
43089;DHT22;28709;52.030;5.652;2023-04-06T14:26:02;7.90;99.90
43089;DHT22;28709;52.030;5.652;2023-04-06T14:28:29;7.90;99.90
43089;DHT22;28709;52.030;5.652;2023-04-06T14:30:55;7.90;99.90
43089;DHT22;28709;52.030;5.652;2023-04-06T14:33:20;7.90;99.90
43089;DHT22;28709;52.030;5.652;2023-04-06T14:35:46;7.80;99.90
43089;DHT22;28709;52.030;5.652;2023-04-06T14:38:12;7.90;99.90
43089;DHT22;28709;52.030;5.652;2023-04-06T14:40:37;7.80;99.90
43089;DHT22;28709;52.030;5.652;2023-04-06T14:43:03;7.80;99.90
43089;DHT22;28709;52.030;5.652;2023-04-06T14:45:29;7.80;99.90
43089;DHT22;28709;52.030;5.652;2023-04-06T14:47:55;7.80;99.90
43089;DHT22;28709;52.030;5.652;2023-04-06T14:50:20;7.80;99.90
43089;DHT22;28709;52.030;5.652;2023-04-06T14:52:46;7.80;99.90
43089;DHT22;28709;52.030;5.652;2023-04-06T14:55:12;7.70;99.90
43089;DHT22;28709;52.030;5.652;2023-04-06T14:57:38;7.70;99.90
43089;DHT22;28709;52.030;5.652;2023-04-06T15:00:04;7.70;99.90
43089;DHT22;28709;52.030;5.652;2023-04-06T15:02:29;7.70;99.90
43089;DHT22;28709;52.030;5.652;2023-04-06T15:04:57;7.70;99.90
43089;DHT22;28709;52.030;5.652;2023-04-06T15:07:22;7.70;99.90
43089;DHT22;28709;52.030;5.652;2023-04-06T15:09:48;7.70;99.90
43089;DHT22;28709;52.030;5.652;2023-04-06T15:12:13;7.70;99.90
43089;DHT22;28709;52.030;5.652;2023-04-06T15:14:39;7.70;99.90
43089;DHT22;28709;52.030;5.652;2023-04-06T15:17:05;7.70;99.90
43089;DHT22;28709;52.030;5.652;2023-04-06T15:19:31;7.70;99.90
43089;DHT22;28709;52.030;5.652;2023-04-06T15:21:56;7.70;99.90
43089;DHT22;28709;52.030;5.652;2023-04-06T15:24:22;7.70;99.90
43089;DHT22;28709;52.030;5.652;2023-04-06T15:26:48;7.70;99.90
43089;DHT22;28709;52.030;5.652;2023-04-06T15:29:13;7.70;99.90
43089;DHT22;28709;52.030;5.652;2023-04-06T15:31:39;7.70;99.90
43089;DHT22;28709;52.030;5.652;2023-04-06T15:34:06;7.70;99.90
43089;DHT22;28709;52.030;5.652;2023-04-06T15:36:35;7.70;99.90
43089;DHT22;28709;52.030;5.652;2023-04-06T15:39:01;7.70;99.90
43089;DHT22;28709;52.030;5.652;2023-04-06T15:41:27;7.70;99.90
43089;DHT22;28709;52.030;5.652;2023-04-06T15:43:53;7.60;99.90
43089;DHT22;28709;52.030;5.652;2023-04-06T15:46:19;7.70;99.90